Time;durP1;ratioP1;P1;durP2;ratioP2;P2;SDS_P1;SDS_P2;PMS_P1;PMS_P2;Temp;Humidity;BMP_temperature;BMP_pressure;BME280_temperature;BME280_humidity;BME280_pressure;Samples;Min_cycle;Max_cycle;Signal;HPM_P1;HPM_P2
2021/08/10 00:00:06;;;;;;;7.40;6.03;;;;;;;21.65;56.67;97181.38;5004512;28;20065;-64
2021/08/10 00:02:33;;;;;;;9.70;5.80;;;;;;;21.59;56.77;97197.22;5003043;28;20583;-62
2021/08/10 00:05:00;;;;;;;6.95;5.75;;;;;;;21.35;56.88;97147.88;5004604;28;20053;-62
2021/08/10 00:07:27;;;;;;;7.28;6.50;;;;;;;21.42;56.72;97147.69;5003881;28;20076;-62
2021/08/10 00:09:53;;;;;;;10.10;5.32;;;;;;;21.76;56.71;97200.88;5004116;28;20057;-62
2021/08/10 00:12:21;;;;;;;6.70;6.03;;;;;;;21.66;56.94;97202.69;5002528;28;20053;-61
2021/08/10 00:14:48;;;;;;;6.60;5.85;;;;;;;21.04;57.00;97121.22;5002684;28;20057;-61
2021/08/10 00:17:15;;;;;;;7.03;6.32;;;;;;;21.58;57.37;97206.91;5003979;28;20524;-60
2021/08/10 00:19:42;;;;;;;8.30;6.47;;;;;;;21.37;57.48;97148.19;5001704;28;20053;-62
2021/08/10 00:22:08;;;;;;;7.38;6.32;;;;;;;21.52;57.63;97169.19;5002195;28;20066;-62
2021/08/10 00:24:35;;;;;;;7.70;5.47;;;;;;;21.68;56.85;97200.22;5004393;28;20058;-61
2021/08/10 00:27:02;;;;;;;7.20;5.75;;;;;;;21.70;56.79;97208.25;5004081;28;20060;-63
2021/08/10 00:29:29;;;;;;;10.65;5.57;;;;;;;21.73;56.66;97199.72;5004160;28;20060;-62
2021/08/10 00:31:56;;;;;;;6.95;5.55;;;;;;;21.14;56.62;97108.09;5004121;28;20058;-63
2021/08/10 00:34:23;;;;;;;6.18;5.40;;;;;;;21.55;56.81;97202.16;5003772;28;20437;-61
2021/08/10 00:36:49;;;;;;;8.77;5.95;;;;;;;21.05;57.40;97161.44;5004093;28;20058;-62
2021/08/10 00:39:16;;;;;;;7.28;5.90;;;;;;;21.38;57.76;97192.09;5002582;28;20141;-62
2021/08/10 00:41:43;;;;;;;8.55;5.45;;;;;;;21.28;57.90;97204.38;5002593;28;20066;-61
2021/08/10 00:44:10;;;;;;;7.25;5.72;;;;;;;21.15;58.03;97183.75;5003007;28;20053;-61
2021/08/10 00:46:37;;;;;;;7.72;5.85;;;;;;;21.27;58.11;97194.34;5002499;28;20572;-62
2021/08/10 00:49:04;;;;;;;9.20;6.03;;;;;;;20.96;58.05;97153.56;5003758;28;20061;-62
2021/08/10 00:51:30;;;;;;;7.43;6.28;;;;;;;21.26;58.01;97194.78;5003728;28;20131;-63
2021/08/10 00:53:59;;;;;;;7.72;5.88;;;;;;;21.19;58.03;97190.09;5002657;28;20046;-60
2021/08/10 00:56:26;;;;;;;6.05;5.38;;;;;;;21.17;58.28;97186.91;5003822;28;20065;-63
2021/08/10 00:58:52;;;;;;;7.85;5.60;;;;;;;21.06;58.62;97192.00;5003064;28;20169;-61
2021/08/10 01:01:19;;;;;;;7.28;5.75;;;;;;;20.80;58.52;97147.88;5002173;28;20415;-61
2021/08/10 01:03:46;;;;;;;6.55;5.95;;;;;;;20.17;58.34;97033.84;5003787;28;20058;-63
2021/08/10 01:06:24;;;;;;;6.63;5.85;;;;;;;20.68;58.37;97120.38;5002152;28;20428;-63
2021/08/10 01:09:01;;;;;;;10.15;6.13;;;;;;;20.92;58.82;97158.47;5004106;28;20062;-64
2021/08/10 01:12:01;;;;;;;7.28;6.03;;;;;;;20.90;59.95;97172.19;5003690;28;20054;-63
2021/08/10 01:14:34;;;;;;;6.38;5.78;;;;;;;20.90;60.25;97169.38;5001994;28;20079;-61
2021/08/10 01:17:06;;;;;;;8.65;5.90;;;;;;;20.94;60.28;97179.34;5002515;28;20058;-62
2021/08/10 01:20:01;;;;;;;8.55;5.72;;;;;;;20.79;59.70;97172.44;5002185;28;20058;-62
2021/08/10 01:22:29;;;;;;;7.57;5.53;;;;;;;18.76;59.30;96853.88;5003276;28;20053;-63
2021/08/10 01:25:28;;;;;;;7.70;5.68;;;;;;;20.92;59.24;97172.56;5003676;28;20501;-61
2021/08/10 01:28:13;;;;;;;6.38;5.78;;;;;;;20.84;59.24;97169.09;5001804;28;20057;-62
2021/08/10 01:30:59;;;;;;;5.97;5.38;;;;;;;20.68;59.77;97165.41;5003933;28;20054;-63
2021/08/10 01:33:28;;;;;;;8.93;6.72;;;;;;;20.72;59.57;97166.16;5007101;28;20491;-62
2021/08/10 01:35:55;;;;;;;6.22;5.60;;;;;;;20.43;59.71;97120.09;5005468;28;20507;-62
2021/08/10 01:38:25;;;;;;;7.18;5.75;;;;;;;20.06;59.50;97076.19;5005510;28;20124;-62
2021/08/10 01:40:52;;;;;;;8.20;6.60;;;;;;;20.54;59.99;97135.56;5006778;28;20061;-62
2021/08/10 01:43:20;;;;;;;8.13;5.95;;;;;;;20.56;60.21;97146.38;5006881;28;20057;-64
2021/08/10 01:45:50;;;;;;;5.85;5.25;;;;;;;19.99;60.50;97075.56;5005112;28;20444;-62
2021/08/10 01:48:18;;;;;;;7.20;5.50;;;;;;;20.39;60.71;97153.16;5005208;28;20065;-64
2021/08/10 01:50:45;;;;;;;7.03;5.60;;;;;;;20.31;60.85;97158.13;5006643;28;20511;-63
2021/08/10 01:53:14;;;;;;;8.02;6.10;;;;;;;20.35;60.79;97158.06;5007075;28;20064;-63
2021/08/10 01:55:42;;;;;;;10.52;5.93;;;;;;;20.51;60.22;97156.13;5007018;28;20062;-62
2021/08/10 01:58:10;;;;;;;7.72;5.90;;;;;;;20.19;60.30;97119.38;5005017;28;20436;-63
2021/08/10 02:00:38;;;;;;;8.77;6.35;;;;;;;19.95;60.63;97077.66;5004866;28;20511;-63
2021/08/10 02:03:10;;;;;;;8.48;6.45;;;;;;;20.45;60.44;97151.44;5005284;28;20120;-62
2021/08/10 02:05:38;;;;;;;8.80;5.80;;;;;;;20.47;60.29;97154.63;5004821;28;20058;-61
2021/08/10 02:08:08;;;;;;;7.22;5.90;;;;;;;20.44;60.39;97155.44;5006219;28;20060;-61
2021/08/10 02:10:35;;;;;;;10.32;6.35;;;;;;;20.38;60.80;97155.19;5007320;28;20058;-63
2021/08/10 02:13:03;;;;;;;8.13;6.10;;;;;;;20.35;60.74;97156.03;5005384;28;20056;-63
2021/08/10 02:15:31;;;;;;;5.40;4.90;;;;;;;19.90;61.05;97086.56;5006769;28;20060;-62
2021/08/10 02:17:58;;;;;;;8.38;6.35;;;;;;;20.21;61.02;97156.31;5006331;28;20054;-61
2021/08/10 02:20:26;;;;;;;8.63;6.63;;;;;;;20.10;61.32;97152.06;5004503;28;20080;-62
2021/08/10 02:22:53;;;;;;;8.10;6.15;;;;;;;19.87;61.30;97104.31;5005885;28;20507;-63
2021/08/10 02:25:23;;;;;;;7.10;5.50;;;;;;;19.99;61.50;97134.59;5006366;28;20050;-63
2021/08/10 02:27:50;;;;;;;8.25;5.90;;;;;;;20.06;61.83;97152.13;5006031;28;20062;-63
2021/08/10 02:30:25;;;;;;;13.35;5.75;;;;;;;20.04;61.86;97154.59;5005042;28;20062;-62
2021/08/10 02:32:52;;;;;;;6.45;5.70;;;;;;;19.97;62.21;97153.91;5004705;28;20064;-62
2021/08/10 02:35:22;;;;;;;6.25;5.65;;;;;;;19.99;62.24;97145.84;5006348;28;20133;-62
2021/08/10 02:37:51;;;;;;;13.10;6.70;;;;;;;19.91;62.37;97166.88;5005739;28;20064;-61
2021/08/10 02:40:20;;;;;;;8.70;5.93;;;;;;;19.68;62.59;97131.13;5004231;28;20049;-61
2021/08/10 02:42:50;;;;;;;8.65;5.78;;;;;;;19.84;62.70;97155.78;5003759;28;20069;-62
2021/08/10 02:45:17;;;;;;;9.77;6.30;;;;;;;19.83;62.61;97156.97;5004474;28;20058;-62
2021/08/10 02:47:49;;;;;;;6.93;5.75;;;;;;;19.82;62.68;97152.59;5004345;28;20054;-62
2021/08/10 02:50:17;;;;;;;8.07;5.95;;;;;;;19.74;62.97;97162.38;5004316;28;20060;-63
2021/08/10 02:52:44;;;;;;;6.05;5.45;;;;;;;19.65;62.73;97131.22;5003994;28;20053;-61
2021/08/10 02:55:11;;;;;;;10.02;6.78;;;;;;;19.80;62.46;97169.91;5005414;28;20065;-62
2021/08/10 02:58:00;;;;;;;7.72;5.75;;;;;;;19.70;63.18;97167.25;5003933;28;20093;-62
2021/08/10 03:00:29;;;;;;;10.52;6.28;;;;;;;19.58;63.03;97149.75;5004037;28;20064;-61
2021/08/10 03:03:08;;;;;;;6.97;5.20;;;;;;;19.58;63.59;97170.66;5005410;28;20057;-65
2021/08/10 03:05:39;;;;;;;7.50;6.40;;;;;;;19.60;63.42;97185.09;5003717;28;20141;-62
2021/08/10 03:08:08;;;;;;;8.05;5.68;;;;;;;19.60;63.47;97168.22;5003654;28;20159;-63
2021/08/10 03:10:38;;;;;;;8.73;6.10;;;;;;;19.60;63.31;97173.84;5003859;28;20053;-61
2021/08/10 03:13:07;;;;;;;9.25;5.93;;;;;;;19.50;63.67;97170.78;5003780;28;20350;-63
2021/08/10 03:15:38;;;;;;;8.57;6.00;;;;;;;19.32;63.77;97135.75;5005024;28;20052;-63
2021/08/10 03:18:11;;;;;;;10.10;5.95;;;;;;;19.60;63.28;97159.78;5005269;28;20564;-61
2021/08/10 03:20:41;;;;;;;7.03;5.43;;;;;;;19.08;63.73;97101.19;5003473;28;20476;-61
2021/08/10 03:23:16;;;;;;;7.90;6.32;;;;;;;19.53;63.66;97169.94;5003578;28;20536;-61
2021/08/10 03:25:45;;;;;;;7.20;5.68;;;;;;;19.34;63.10;97134.13;5003542;28;20523;-62
2021/08/10 03:28:13;;;;;;;8.00;5.45;;;;;;;19.74;62.78;97179.25;5005038;28;20649;-62
2021/08/10 03:30:41;;;;;;;11.25;6.15;;;;;;;19.25;63.14;97114.16;5004331;28;20501;-63
2021/08/10 03:33:08;;;;;;;9.15;6.50;;;;;;;19.71;63.13;97171.66;5003693;28;20582;-62
2021/08/10 03:35:37;;;;;;;10.02;6.60;;;;;;;19.75;63.08;97180.81;5004904;28;20199;-64
2021/08/10 03:38:06;;;;;;;8.38;6.90;;;;;;;19.52;63.16;97145.84;5003265;28;20124;-62
2021/08/10 03:40:33;;;;;;;7.80;6.68;;;;;;;19.51;63.32;97138.66;5002762;28;20050;-62
2021/08/10 03:43:00;;;;;;;16.90;8.52;;;;;;;19.80;62.31;97171.91;5003148;28;20143;-62
2021/08/10 03:45:28;;;;;;;10.32;7.07;;;;;;;20.04;62.42;97187.56;5003006;28;20062;-62
2021/08/10 03:47:56;;;;;;;13.50;7.47;;;;;;;20.14;61.81;97192.22;5004491;28;20064;-63
2021/08/10 03:50:24;;;;;;;11.60;5.88;;;;;;;19.78;61.71;97134.97;5003268;28;20054;-63
2021/08/10 03:52:51;;;;;;;11.15;6.35;;;;;;;20.02;62.01;97178.75;5003205;28;20060;-65
2021/08/10 03:55:19;;;;;;;13.70;6.18;;;;;;;19.79;61.13;97130.97;5001904;28;20056;-63
2021/08/10 03:57:47;;;;;;;7.90;5.75;;;;;;;20.42;60.59;97180.44;5002615;28;20054;-64
2021/08/10 04:00:15;;;;;;;7.13;5.88;;;;;;;20.59;60.11;97184.91;5004611;28;20061;-62
2021/08/10 04:02:43;;;;;;;9.55;6.35;;;;;;;20.40;59.59;97132.22;5003802;28;20539;-62
2021/08/10 04:05:11;;;;;;;10.52;6.10;;;;;;;20.80;59.34;97190.13;5002743;28;20513;-61
2021/08/10 04:07:41;;;;;;;13.07;6.85;;;;;;;20.79;60.24;97202.59;5004512;28;20604;-62
2021/08/10 04:10:09;;;;;;;19.58;7.20;;;;;;;20.67;59.46;97152.59;5002617;28;20532;-61
2021/08/10 04:12:36;;;;;;;12.30;7.22;;;;;;;21.17;59.31;97189.75;5004085;28;20050;-63
2021/08/10 04:15:07;;;;;;;16.73;6.90;;;;;;;21.11;59.72;97187.88;5002521;28;20613;-61
2021/08/10 04:17:37;;;;;;;12.35;6.22;;;;;;;21.17;59.47;97184.09;5002868;28;20480;-62
2021/08/10 04:20:05;;;;;;;18.75;8.00;;;;;;;21.23;58.46;97151.34;5002112;28;20052;-60
2021/08/10 04:22:32;;;;;;;16.00;6.80;;;;;;;21.24;58.64;97152.97;5002488;28;20065;-62
2021/08/10 04:25:00;;;;;;;11.52;7.03;;;;;;;21.46;58.28;97176.59;5002945;28;20057;-63
2021/08/10 04:27:26;;;;;;;10.80;6.82;;;;;;;21.47;57.84;97186.63;5002210;28;20061;-61
2021/08/10 04:29:53;;;;;;;17.42;8.70;;;;;;;21.45;58.60;97180.63;5002267;28;20505;-62
2021/08/10 04:32:20;;;;;;;11.90;7.45;;;;;;;21.18;58.34;97134.19;5003289;28;20436;-62
2021/08/10 04:34:46;;;;;;;20.10;7.70;;;;;;;21.52;58.20;97163.56;5002301;28;20546;-61
2021/08/10 04:37:13;;;;;;;20.77;7.85;;;;;;;21.06;57.96;97104.66;5003489;28;20057;-61
2021/08/10 04:39:40;;;;;;;17.88;7.68;;;;;;;21.44;57.39;97127.50;5003353;28;20359;-62
2021/08/10 04:42:07;;;;;;;19.77;6.68;;;;;;;21.73;57.33;97162.25;5003382;28;20067;-63
2021/08/10 04:44:33;;;;;;;17.83;6.40;;;;;;;21.60;56.72;97119.88;5002697;28;20056;-63
2021/08/10 04:47:00;;;;;;;42.70;9.25;;;;;;;21.97;56.03;97166.50;5002039;28;20053;-63
2021/08/10 04:49:27;;;;;;;14.27;6.70;;;;;;;22.22;55.08;97173.06;5003375;28;20631;-63
2021/08/10 04:51:54;;;;;;;13.07;7.45;;;;;;;22.52;54.51;97179.56;5002270;28;20061;-63
2021/08/10 04:54:20;;;;;;;12.25;6.68;;;;;;;22.39;53.42;97109.72;5002436;28;20089;-65
2021/08/10 04:56:47;;;;;;;11.88;7.07;;;;;;;22.74;53.17;97124.06;5001845;28;20062;-62
2021/08/10 04:59:14;;;;;;;20.27;7.35;;;;;;;23.26;52.97;97184.66;5001852;28;20436;-63
2021/08/10 05:01:44;;;;;;;17.08;7.50;;;;;;;23.60;51.91;97162.16;5003415;28;20735;-63
2021/08/10 05:04:11;;;;;;;18.55;7.78;;;;;;;23.92;51.02;97178.09;5003810;28;20504;-63
2021/08/10 05:06:38;;;;;;;16.25;7.13;;;;;;;23.91;51.26;97134.06;5004316;28;20108;-63
2021/08/10 05:09:06;;;;;;;20.33;8.57;;;;;;;24.42;50.22;97158.16;5007151;28;20077;-63
2021/08/10 05:11:34;;;;;;;22.20;7.90;;;;;;;24.65;49.23;97135.06;5005885;28;20054;-62
2021/08/10 05:14:01;;;;;;;18.85;7.55;;;;;;;25.23;47.72;97175.78;5007047;28;20061;-66
2021/08/10 05:16:28;;;;;;;14.63;6.97;;;;;;;25.10;46.42;97120.44;5005505;28;20050;-63
2021/08/10 05:18:55;;;;;;;14.18;7.55;;;;;;;25.35;46.27;97133.66;5006085;28;20489;-62
2021/08/10 05:21:22;;;;;;;12.93;7.93;;;;;;;25.39;46.65;97149.28;5005021;28;20068;-62
2021/08/10 05:23:48;;;;;;;16.35;7.80;;;;;;;25.52;46.48;97149.16;5005070;28;20501;-62
2021/08/10 05:26:16;;;;;;;16.17;7.82;;;;;;;25.64;47.21;97179.50;5004726;28;20056;-63
2021/08/10 05:28:43;;;;;;;14.43;7.65;;;;;;;25.45;46.94;97172.16;5005020;28;20058;-63
2021/08/10 05:31:09;;;;;;;10.85;6.90;;;;;;;25.42;46.83;97173.88;5006618;28;20340;-64
2021/08/10 05:33:37;;;;;;;10.13;5.97;;;;;;;25.49;46.83;97150.91;5005340;28;20571;-63
2021/08/10 05:36:04;;;;;;;14.85;6.60;;;;;;;25.36;46.16;97150.22;5005260;28;20049;-63
2021/08/10 05:38:32;;;;;;;12.13;6.80;;;;;;;24.12;46.84;96940.88;5001596;28;20501;-68
2021/08/10 05:40:59;;;;;;;14.82;8.43;;;;;;;25.54;47.78;97172.19;4992729;28;20112;-68
2021/08/10 05:43:25;;;;;;;16.92;7.65;;;;;;;25.60;48.62;97173.16;4986752;28;20068;-69
2021/08/10 05:45:54;;;;;;;12.35;7.25;;;;;;;25.50;48.50;97158.16;4997069;28;20068;-68
2021/08/10 05:48:22;;;;;;;12.63;6.97;;;;;;;25.45;47.39;97132.44;5003963;28;20538;-69
2021/08/10 05:50:49;;;;;;;17.50;7.30;;;;;;;25.29;48.20;97085.25;5005663;28;20448;-66
2021/08/10 05:53:16;;;;;;;11.93;6.93;;;;;;;25.51;47.77;97119.22;5006072;28;20049;-69
2021/08/10 05:55:43;;;;;;;16.05;8.70;;;;;;;25.61;50.06;97147.16;5004846;28;20058;-69
2021/08/10 05:58:09;;;;;;;20.58;7.57;;;;;;;25.51;50.25;97145.56;5006137;28;20064;-67
2021/08/10 06:00:37;;;;;;;15.13;7.45;;;;;;;24.85;51.95;97098.69;5006190;28;20068;-70
2021/08/10 06:03:04;;;;;;;24.85;9.88;;;;;;;25.25;51.98;97153.44;5006016;28;20053;-69
2021/08/10 06:05:33;;;;;;;25.02;7.93;;;;;;;25.07;51.56;97153.31;5004233;28;20131;-69
2021/08/10 06:08:00;;;;;;;20.83;9.00;;;;;;;24.40;52.39;97070.06;5004264;28;20137;-70
2021/08/10 06:10:27;;;;;;;17.13;8.25;;;;;;;24.82;53.19;97186.69;5005489;28;20061;-68
2021/08/10 06:12:54;;;;;;;23.40;7.85;;;;;;;24.30;52.49;97102.38;5005838;28;21224;-65
2021/08/10 06:15:21;;;;;;;21.35;9.70;;;;;;;24.95;52.73;97176.09;5005078;28;20485;-70
2021/08/10 06:17:48;;;;;;;20.27;8.55;;;;;;;24.58;52.54;97132.47;5004636;28;20108;-68
2021/08/10 06:20:15;;;;;;;16.80;8.32;;;;;;;23.69;52.49;96988.94;5003898;28;20534;-66
2021/08/10 06:22:42;;;;;;;17.60;8.20;;;;;;;24.93;51.95;97131.19;5006200;28;20053;-69
2021/08/10 06:25:10;;;;;;;19.77;9.13;;;;;;;24.99;51.49;97123.66;5004258;28;20061;-66
2021/08/10 06:27:38;;;;;;;21.60;8.18;;;;;;;25.09;52.37;97150.03;5005079;28;20544;-71
2021/08/10 06:30:06;;;;;;;19.67;8.25;;;;;;;25.05;52.17;97115.38;5005373;28;20052;-69
2021/08/10 06:32:33;;;;;;;24.45;8.60;;;;;;;24.75;52.07;97074.41;5005412;28;20050;-70
2021/08/10 06:35:00;;;;;;;20.13;7.30;;;;;;;25.39;51.30;97146.44;4989650;28;20061;-66
2021/08/10 06:37:27;;;;;;;14.20;7.40;;;;;;;25.25;51.41;97118.63;4984710;28;20141;-64
2021/08/10 06:39:54;;;;;;;10.65;7.40;;;;;;;25.40;50.73;97113.19;5005517;28;20057;-68
2021/08/10 06:42:21;;;;;;;18.20;7.07;;;;;;;25.46;50.84;97117.00;5003893;28;20062;-63
2021/08/10 06:44:49;;;;;;;13.40;7.10;;;;;;;25.62;50.94;97111.06;5005586;28;20077;-67
2021/08/10 06:47:16;;;;;;;18.25;8.60;;;;;;;25.08;50.75;97016.00;5005307;28;20084;-72
2021/08/10 06:49:43;;;;;;;27.45;8.50;;;;;;;25.40;53.22;97102.66;5003553;28;20057;-69
2021/08/10 06:52:11;;;;;;;17.65;8.18;;;;;;;25.30;52.77;97137.88;5005094;28;20053;-67
2021/08/10 06:54:38;;;;;;;10.13;7.28;;;;;;;25.48;52.67;97137.19;5004909;28;20087;-67
2021/08/10 06:57:06;;;;;;;17.98;8.10;;;;;;;24.94;54.46;97073.25;5004935;28;20128;-70
2021/08/10 06:59:37;;;;;;;20.23;8.05;;;;;;;25.71;52.89;97139.47;5004488;28;20053;-62
2021/08/10 07:02:05;;;;;;;23.80;8.50;;;;;;;25.88;52.79;97130.22;5003520;28;20046;-63
2021/08/10 07:04:33;;;;;;;24.88;9.25;;;;;;;25.96;52.84;97122.97;5004929;28;20081;-61
2021/08/10 07:07:01;;;;;;;31.67;12.98;;;;;;;26.03;52.17;97085.81;5004664;28;20659;-62
2021/08/10 07:09:28;;;;;;;25.48;9.23;;;;;;;25.08;53.14;97046.38;5003829;28;20606;-71
2021/08/10 07:11:54;;;;;;;15.88;8.80;;;;;;;25.81;52.74;97143.94;5004493;28;20056;-67
2021/08/10 07:14:21;;;;;;;13.48;7.95;;;;;;;24.73;52.21;96985.44;5004496;28;20053;-62
2021/08/10 07:16:48;;;;;;;17.80;9.07;;;;;;;25.57;51.87;97091.81;5002887;28;20060;-65
2021/08/10 07:19:15;;;;;;;13.98;8.07;;;;;;;26.43;50.46;97116.94;5003948;28;20054;-63
2021/08/10 07:21:43;;;;;;;20.65;8.80;;;;;;;26.69;49.74;97123.88;5003908;28;20070;-64
2021/08/10 07:24:09;;;;;;;13.02;7.18;;;;;;;27.45;47.76;97149.97;5004680;28;20159;-64
2021/08/10 07:26:36;;;;;;;17.92;8.75;;;;;;;27.71;46.86;97119.81;5004454;28;20057;-67
2021/08/10 07:29:03;;;;;;;18.67;8.43;;;;;;;28.26;45.92;97156.56;5004286;28;20077;-64
2021/08/10 07:31:30;;;;;;;13.60;8.10;;;;;;;28.45;45.55;97149.47;5004578;28;20437;-65
2021/08/10 07:33:57;;;;;;;14.02;7.88;;;;;;;28.21;43.93;97112.44;5004108;28;20049;-64
2021/08/10 07:36:24;;;;;;;15.43;8.05;;;;;;;28.76;43.50;97135.59;5004705;28;20060;-65
2021/08/10 07:38:50;;;;;;;17.52;8.25;;;;;;;29.14;41.93;97109.91;5004341;28;20508;-65
2021/08/10 07:41:17;;;;;;;13.13;7.82;;;;;;;29.55;40.34;97134.47;5004007;28;20892;-65
2021/08/10 07:43:44;;;;;;;11.05;7.82;;;;;;;29.28;39.11;97012.06;5002365;28;20054;-65
2021/08/10 07:46:11;;;;;;;12.85;7.93;;;;;;;30.50;37.90;97129.72;5004033;28;20073;-65
2021/08/10 07:48:37;;;;;;;10.40;7.03;;;;;;;30.58;36.95;97133.72;5001872;28;20112;-65
2021/08/10 07:51:04;;;;;;;12.82;7.60;;;;;;;30.72;37.00;97141.41;5002364;28;20060;-63
2021/08/10 07:53:31;;;;;;;18.58;11.48;;;;;;;30.63;36.82;97067.22;5003783;28;20056;-62
2021/08/10 07:55:58;;;;;;;10.85;7.85;;;;;;;30.42;36.47;96991.31;5003859;28;20107;-62
2021/08/10 07:58:24;;;;;;;14.73;11.68;;;;;;;31.56;35.87;97134.50;5003205;28;20050;-70
2021/08/10 08:00:51;;;;;;;9.38;7.07;;;;;;;32.03;35.12;97133.84;5003806;28;20077;-63
2021/08/10 08:03:18;;;;;;;9.45;7.65;;;;;;;32.13;34.27;97132.38;5002722;28;20160;-63
2021/08/10 08:05:45;;;;;;;12.60;8.10;;;;;;;32.33;33.92;97126.47;5003428;28;20058;-67
2021/08/10 08:08:12;;;;;;;10.00;7.65;;;;;;;32.27;33.25;97097.00;4998510;28;20061;-65
2021/08/10 08:10:39;;;;;;;9.02;8.18;;;;;;;32.36;33.38;97059.47;5000224;28;20512;-65
2021/08/10 08:13:21;;;;;;;8.27;7.47;;;;;;;32.67;31.85;97085.19;4995100;28;20480;-66
2021/08/10 08:15:48;;;;;;;20.15;14.38;;;;;;;32.85;31.76;97107.69;5001805;28;20053;-65
2021/08/10 08:18:15;;;;;;;10.90;8.43;;;;;;;32.28;32.54;97001.03;5002828;28;20527;-68
2021/08/10 08:20:41;;;;;;;12.55;8.65;;;;;;;33.06;32.37;97106.19;5003321;28;20080;-60
2021/08/10 08:23:08;;;;;;;9.88;8.40;;;;;;;32.82;32.08;97048.44;5004066;28;20058;-64
2021/08/10 08:25:35;;;;;;;10.45;9.13;;;;;;;32.28;33.67;97110.03;5003496;28;20164;-66
2021/08/10 08:28:08;;;;;;;12.50;9.65;;;;;;;32.54;32.40;97087.75;5001827;28;20636;-66
2021/08/10 08:30:38;;;;;;;17.08;11.10;;;;;;;32.66;30.88;97057.78;5001618;28;20187;-66
2021/08/10 08:33:10;;;;;;;7.15;6.45;;;;;;;32.29;29.53;97025.56;5001878;28;20584;-65
2021/08/10 08:35:38;;;;;;;8.63;7.78;;;;;;;32.79;29.86;97086.00;4983067;28;20054;-65
2021/08/10 08:38:10;;;;;;;8.93;8.18;;;;;;;32.48;30.04;96986.56;4983901;28;20088;-66
2021/08/10 08:40:41;;;;;;;7.80;6.95;;;;;;;33.30;28.45;97069.16;4983772;28;20485;-65
2021/08/10 08:43:07;;;;;;;11.77;7.38;;;;;;;33.21;29.10;97006.22;4984004;28;20565;-66
2021/08/10 08:45:35;;;;;;;8.52;6.40;;;;;;;33.47;27.65;97015.38;4983791;28;20058;-67
2021/08/10 08:48:03;;;;;;;7.00;6.38;;;;;;;34.22;27.48;97073.78;4983987;28;20058;-68
2021/08/10 08:50:33;;;;;;;8.10;6.95;;;;;;;34.56;27.43;97069.50;4983867;28;20076;-65
2021/08/10 08:53:03;;;;;;;9.10;7.15;;;;;;;34.48;26.16;97048.34;4989638;28;20085;-63
2021/08/10 08:55:30;;;;;;;8.85;6.88;;;;;;;32.96;27.03;97010.13;5003117;28;20075;-64
2021/08/10 08:57:59;;;;;;;10.95;7.10;;;;;;;33.77;27.19;97063.69;5003476;28;20064;-64
2021/08/10 09:00:25;;;;;;;9.07;8.25;;;;;;;34.10;27.45;97060.75;5003487;28;20061;-63
2021/08/10 09:02:52;;;;;;;10.40;9.35;;;;;;;34.05;27.49;97006.91;5003680;28;20068;-65
2021/08/10 09:05:19;;;;;;;27.25;24.48;;;;;;;34.52;27.10;97057.50;5003277;28;20061;-65
2021/08/10 09:07:46;;;;;;;22.92;20.42;;;;;;;34.66;27.22;97050.63;5003077;28;20052;-65
2021/08/10 09:10:18;;;;;;;18.52;16.77;;;;;;;34.52;27.00;97005.69;5001196;28;20054;-65
2021/08/10 09:12:50;;;;;;;16.42;12.60;;;;;;;35.05;27.07;97048.28;5003134;28;20050;-67
2021/08/10 09:15:38;;;;;;;13.63;12.07;;;;;;;34.81;26.24;97025.13;5002981;28;20514;-65
2021/08/10 09:18:25;;;;;;;8.73;7.80;;;;;;;35.33;26.57;97040.22;5003236;28;20108;-66
2021/08/10 09:21:01;;;;;;;12.50;7.60;;;;;;;35.30;26.16;97023.25;5003023;28;20068;-64
2021/08/10 09:23:49;;;;;;;8.77;7.53;;;;;;;35.70;26.00;97049.09;4973933;28;20628;-61
2021/08/10 09:26:21;;;;;;;7.03;6.40;;;;;;;35.83;26.90;97014.66;5001770;28;20065;-64
2021/08/10 09:28:49;;;;;;;9.98;7.97;;;;;;;36.06;26.31;97033.28;5001498;28;20073;-64
2021/08/10 09:31:29;;;;;;;40.85;25.92;;;;;;;35.85;25.69;97034.31;5001729;28;20054;-65
2021/08/10 09:34:02;;;;;;;11.82;10.25;;;;;;;35.82;25.97;97004.41;5003048;28;20085;-66
2021/08/10 09:36:30;;;;;;;11.43;7.68;;;;;;;35.30;26.06;97029.78;5002744;28;20112;-64
2021/08/10 09:38:58;;;;;;;9.15;7.40;;;;;;;35.85;25.02;97026.41;5002763;28;20074;-66
2021/08/10 09:41:32;;;;;;;11.23;9.18;;;;;;;35.86;25.39;97030.88;5002774;28;20054;-65
2021/08/10 09:44:06;;;;;;;9.00;7.45;;;;;;;35.63;24.81;97029.50;5003073;28;20517;-66
2021/08/10 09:46:35;;;;;;;13.25;9.73;;;;;;;35.65;25.45;96980.75;5002679;28;20064;-65
2021/08/10 09:49:02;;;;;;;8.60;6.47;;;;;;;35.67;24.52;96988.84;5001150;28;20068;-65
2021/08/10 09:51:31;;;;;;;8.77;7.80;;;;;;;36.28;24.52;97007.03;5000875;28;20057;-65
2021/08/10 09:54:02;;;;;;;8.68;7.20;;;;;;;36.67;23.85;97011.56;5004697;28;20045;-66
2021/08/10 09:56:40;;;;;;;9.88;8.43;;;;;;;36.69;23.95;97017.56;5006364;28;20220;-66
2021/08/10 09:59:07;;;;;;;7.93;6.70;;;;;;;35.97;24.15;97022.13;5006089;28;20045;-66
2021/08/10 10:01:39;;;;;;;8.00;7.13;;;;;;;36.10;24.36;97009.91;5006793;28;20046;-65
2021/08/10 10:04:13;;;;;;;9.55;8.65;;;;;;;35.71;24.42;97010.28;5006178;28;20050;-64
2021/08/10 10:06:42;;;;;;;10.15;8.40;;;;;;;36.06;24.32;97010.19;5006095;28;20085;-65
2021/08/10 10:09:10;;;;;;;11.20;8.60;;;;;;;36.29;24.29;96953.78;5004496;28;20058;-64
2021/08/10 10:11:39;;;;;;;10.45;7.43;;;;;;;37.39;23.18;97014.16;5006203;28;20134;-67
2021/08/10 10:14:07;;;;;;;7.70;7.05;;;;;;;37.56;23.10;97006.00;5005471;28;20058;-66
2021/08/10 10:16:35;;;;;;;8.38;7.53;;;;;;;37.27;22.70;96943.41;5004392;28;20084;-64
2021/08/10 10:19:10;;;;;;;10.15;8.30;;;;;;;37.61;22.35;97010.88;5005424;28;20544;-65
2021/08/10 10:21:40;;;;;;;11.50;7.15;;;;;;;37.54;22.75;97012.31;5005987;28;20387;-63
2021/08/10 10:24:09;;;;;;;26.92;14.30;;;;;;;38.20;22.25;97007.44;5003788;28;20528;-66
2021/08/10 10:26:39;;;;;;;12.00;10.07;;;;;;;37.12;22.52;96931.59;5004391;28;20073;-65
2021/08/10 10:29:08;;;;;;;9.13;6.55;;;;;;;37.52;22.50;96896.44;5003537;28;20054;-67
2021/08/10 10:31:35;;;;;;;14.93;11.00;;;;;;;38.54;21.96;96993.78;4993134;28;20430;-64
2021/08/10 10:34:05;;;;;;;9.18;8.15;;;;;;;38.54;21.61;96990.13;4993290;28;20058;-66
2021/08/10 10:36:34;;;;;;;8.80;8.00;;;;;;;37.98;22.20;96987.59;5005511;28;20053;-65
2021/08/10 10:39:03;;;;;;;11.82;9.85;;;;;;;37.71;22.46;96962.88;5005097;28;20600;-65
2021/08/10 10:41:32;;;;;;;12.45;8.57;;;;;;;37.66;22.37;96992.63;5005624;28;20148;-66
2021/08/10 10:43:59;;;;;;;8.00;7.30;;;;;;;37.40;23.22;96966.59;5005451;28;20061;-65
2021/08/10 10:46:29;;;;;;;10.88;8.50;;;;;;;37.63;22.74;96977.19;5003220;28;20054;-64
2021/08/10 10:48:56;;;;;;;9.95;9.02;;;;;;;36.36;22.70;96799.44;4999331;28;20493;-65
2021/08/10 10:51:26;;;;;;;8.80;7.93;;;;;;;37.25;23.65;96977.88;4988634;28;20054;-67
2021/08/10 10:54:26;;;;;;;23.42;16.65;;;;;;;37.29;22.59;96981.22;4994332;28;20062;-68
2021/08/10 10:56:57;;;;;;;10.18;7.30;;;;;;;37.20;23.29;96975.81;4995820;28;20477;-67
2021/08/10 10:59:34;;;;;;;10.65;9.50;;;;;;;36.82;22.73;96855.94;5003657;28;20065;-69
2021/08/10 11:02:17;;;;;;;8.23;7.28;;;;;;;38.32;22.40;96967.47;5004867;28;20213;-69
2021/08/10 11:05:06;;;;;;;8.25;7.35;;;;;;;38.81;21.54;96962.69;4984708;28;20062;-69
2021/08/10 11:07:47;;;;;;;8.48;7.78;;;;;;;38.66;21.23;96887.97;5003142;28;20076;-66
2021/08/10 11:10:47;;;;;;;7.82;7.13;;;;;;;39.45;21.23;96957.19;5001623;28;20046;-68
2021/08/10 11:13:16;;;;;;;8.00;7.20;;;;;;;38.86;21.58;96958.84;4985416;28;20054;-64
2021/08/10 11:15:46;;;;;;;7.65;6.95;;;;;;;37.97;22.32;96960.00;4985762;28;20058;-68
2021/08/10 11:18:13;;;;;;;8.00;7.20;;;;;;;37.25;23.02;96923.75;4985284;28;20128;-66
2021/08/10 11:20:51;;;;;;;8.63;6.97;;;;;;;37.75;22.68;96964.09;4985212;28;20386;-65
2021/08/10 11:23:21;;;;;;;7.88;7.18;;;;;;;38.21;22.11;96953.97;5001306;28;20062;-67
2021/08/10 11:26:13;;;;;;;7.78;7.07;;;;;;;38.16;22.43;96951.22;4989568;28;20149;-64
2021/08/10 11:28:50;;;;;;;7.20;6.45;;;;;;;37.50;22.79;96950.34;4985998;28;20532;-65
2021/08/10 11:31:46;;;;;;;9.98;6.53;;;;;;;35.75;22.74;96702.28;4992931;28;20605;-63
2021/08/10 11:34:31;;;;;;;9.80;7.03;;;;;;;37.17;22.48;96852.66;4994800;28;20520;-67
2021/08/10 11:37:22;;;;;;;8.02;6.60;;;;;;;37.61;22.48;96874.94;5003036;28;20089;-64
2021/08/10 11:40:11;;;;;;;10.48;6.70;;;;;;;37.79;23.09;96935.63;5003108;28;20739;-60